フェニックス の空港の天気 - METARとTAF

フェニックス・スカイハーバー国際空港 ( KPHX / PHX ) - アメリカ アリゾナ州フェニックス
飛行場実況気象(Metar)
観測時間06/24 02:51 MST (06/24 09:51 UTC)
風向・風速東北東 3m/s
視程10km以上
天気現象
少しの雲 雲底高度 3660m
気温26.1℃
湿度17%
気圧1006.7hPa
METARKPHX 240951Z 07005KT 10SM FEW120 26/M01 A2979 RMK AO2 SLP067 T02611006
過去の天気等 Google飛行場航空写真 Wunderground天気予報

過去48時間のMETAR

飛行場予報(TAF)
発表時間: 6/24 01:52 MST (6/24 08:52 UTC)
予報対象時間: 24日2時 MST ~ 25日5時 MST
風向・風速東 3m/s
視程10km以上
少しの雲 雲底高度 3660m
24日11時 MST から
風向・風速南 3m/s
視程10km以上
なし
24日14時 MST から
風向・風速西 3m/s
視程10km以上
なし
25日2時 MST から
風向・風速東 3m/s
視程10km以上
なし
KPHX 240852Z 2409/2512 10006KT P6SM FEW120
FM241800 18005KT P6SM SKC
FM242100 26006KT P6SM SKC
FM250900 10005KT P6SM SKC